Airfield :
LOGIN :

Register | Disclaimer

   EN    FR    IT 

 










Legend :    VFR   Marginal VFR   IFR   Intensive IFR   Very Intensive IFR
Visi :
Ceiling :
>= 8 km
>= 3000ft
5 to 8 km
1000 to 3000 ft
1500m to 5 km
500 to 1000 ft
800 to 1500m
200 to 500 ft
< 800m
< 200 ft
Symbols :   Thunderstorms  Fog  Heavy snow  Heavy precipitations  Wind > 20 kt
SIGMETs :     Misc.  Thunderstorms  Icing  Turbulence  Mountain Waves  Volcanic Ashes







- Airport Elevation : 1455 ft


ETIH - Hohenfels Army Air Field

CURRENT METAR :
  • 211856Z AUTO 00000KT 9000 M OVC016 01/01 A3004 RMK AO2 SLP199 T00070007 $

EXPIRED METARs :
  • 211838Z AUTO 00000KT 5000 M OVC016 01/01 A3003 RMK AO2 SLP195 $
  • 211756Z AUTO 00000KT 9999 OVC016 01/01 A3002 RMK AO2 SLP192 T00080008 10014 20006 52013 $
  • 211656Z AUTO 27003KT 9999 OVC015 01/01 A3002 RMK AO2 SLP192 T00080008 $

Expired Forecast.
No reported NOTAMs for that airfield.
2 SIGMETs reported for the München FIR (EDMM) :
 
Severe icing
EDMM SIGMET 2 VALID 211844/212000 EDZM
EDMM MUNCHEN FIR SEV ICE FCST WI N5037 E01039 - N5024 E01230 - N5002 E01219 - N5006 E01030 - N5014 E01017 - N5037 E01039 1500FT/4500FT STNR NC=
Severe icing
EDMM SIGMET 1 VALID 211820/212000 EDZM
EDMM MUNCHEN FIR SEV ICE FCST WI N4842 E01100 - N4744 E01100 - N4745 E00914 - N4842 E00940 - N4842 E01100 SFC/4500FT STNR NC=



MET'MAP, your aeronautical weather chart ! - Copyright ORBIFLY December 2007 - Disclaimer

ORBIFLY MET'MAP TEAM :

Programming & Development : Alexandra Zaïnal
Concept & Development : Baudouin d'Aumeries
Co-Development & Prog : Marc-Olivier Méhu
Technical & hardware support : Manuel Goepfert

Contact : metmap@orbifly.com




SOURCES & CREDITS :

   NOAA